createdAt,value
2022-09-01T00:00:15.117Z,3.78
2022-09-01T00:03:03.115Z,2.28
2022-09-01T00:05:33.167Z,4.68
2022-09-01T00:08:01.355Z,2.92
2022-09-01T00:10:29.149Z,3.75
2022-09-01T00:12:57.146Z,2.53
2022-09-01T00:15:26.161Z,3.38
2022-09-01T00:17:54.060Z,2.88
2022-09-01T00:20:21.899Z,2.33
2022-09-01T00:22:49.983Z,3.53
2022-09-01T00:25:20.144Z,3.47
2022-09-01T00:27:51.838Z,3.22
2022-09-01T00:30:20.649Z,4.10
2022-09-01T00:32:48.722Z,2.13
2022-09-01T00:35:20.360Z,4.65
2022-09-01T00:37:48.693Z,5.20
2022-09-01T00:40:17.761Z,4.15
2022-09-01T00:42:46.229Z,3.35
2022-09-01T00:45:14.891Z,4.30
2022-09-01T00:47:43.164Z,3.60
2022-09-01T00:50:13.956Z,4.63
2022-09-01T00:52:52.234Z,2.55
2022-09-01T00:55:27.020Z,3.20
2022-09-01T00:57:55.542Z,7.30
2022-09-01T01:00:26.890Z,2.38
2022-09-01T01:02:56.709Z,5.95
2022-09-01T01:05:29.252Z,3.13
2022-09-01T01:07:57.319Z,3.17
2022-09-01T01:10:26.569Z,3.33
2022-09-01T01:12:54.535Z,2.53
2022-09-01T01:15:22.432Z,5.18
2022-09-01T01:17:50.562Z,5.63
2022-09-01T01:20:40.547Z,4.03
2022-09-01T01:23:23.407Z,2.83
2022-09-01T01:25:55.644Z,5.15
2022-09-01T01:28:32.874Z,6.43
2022-09-01T01:31:11.984Z,4.55
2022-09-01T01:33:47.656Z,3.15
2022-09-01T01:36:19.923Z,3.30
2022-09-01T01:38:49.442Z,8.52
2022-09-01T01:41:19.888Z,4.18
2022-09-01T01:43:48.409Z,4.32
2022-09-01T01:46:19.245Z,2.25
2022-09-01T01:48:50.588Z,4.72
2022-09-01T01:51:21.372Z,3.47
2022-09-01T01:53:52.793Z,6.10
2022-09-01T01:56:25.760Z,7.22
2022-09-01T01:58:56.402Z,6.45
2022-09-01T02:01:28.888Z,4.18
2022-09-01T02:03:59.189Z,5.15
2022-09-01T02:06:29.458Z,3.92
2022-09-01T02:09:01.626Z,4.00
2022-09-01T02:11:33.706Z,4.90
2022-09-01T02:14:02.216Z,4.45
2022-09-01T02:16:33.542Z,5.65
2022-09-01T02:19:07.286Z,4.82
2022-09-01T02:21:36.102Z,6.10
2022-09-01T02:24:08.532Z,5.05
2022-09-01T02:26:40.760Z,4.85
2022-09-01T02:29:18.090Z,6.53
2022-09-01T02:31:52.046Z,4.65
2022-09-01T02:36:51.972Z,3.58
2022-09-01T02:39:29.281Z,4.18
2022-09-01T02:41:57.532Z,3.78
2022-09-01T02:44:31.159Z,4.18
2022-09-01T02:47:01.862Z,18.65
2022-09-01T02:49:30.245Z,8.50
2022-09-01T02:52:02.809Z,3.75
2022-09-01T02:54:33.040Z,5.45
2022-09-01T02:57:01.694Z,6.57
2022-09-01T02:59:31.058Z,5.38
2022-09-01T03:02:01.857Z,6.38
2022-09-01T03:04:33.999Z,4.78
2022-09-01T03:07:04.481Z,5.15
2022-09-01T03:09:32.840Z,4.47
2022-09-01T03:12:00.605Z,5.63
2022-09-01T03:14:30.093Z,3.10
2022-09-01T03:17:00.646Z,4.22
2022-09-01T03:19:32.360Z,4.57
2022-09-01T03:22:00.340Z,5.32
2022-09-01T03:24:32.246Z,4.75
2022-09-01T03:27:01.174Z,7.40
2022-09-01T03:29:29.162Z,4.85
2022-09-01T03:31:57.027Z,7.00
2022-09-01T03:34:24.964Z,10.25
2022-09-01T03:36:56.453Z,4.68
2022-09-01T03:39:28.217Z,4.10
2022-09-01T03:41:58.392Z,11.43
2022-09-01T03:44:26.567Z,3.83
2022-09-01T03:46:54.291Z,6.55
2022-09-01T03:49:27.801Z,6.28
2022-09-01T03:51:58.408Z,4.75
2022-09-01T03:54:28.416Z,8.18
2022-09-01T03:56:58.177Z,3.70
2022-09-01T03:59:27.084Z,3.88
2022-09-01T04:01:55.164Z,5.03
2022-09-01T04:04:23.130Z,5.18
2022-09-01T04:06:50.949Z,7.50
2022-09-01T04:09:18.916Z,7.70
2022-09-01T04:11:46.968Z,6.97
2022-09-01T04:14:16.621Z,5.45
2022-09-01T04:17:04.566Z,6.45
2022-09-01T04:19:38.545Z,5.38
2022-09-01T04:22:08.186Z,7.20
2022-09-01T04:24:46.131Z,5.47
2022-09-01T04:27:18.116Z,5.68
2022-09-01T04:29:47.028Z,11.40
2022-09-01T04:32:15.982Z,5.55
2022-09-01T04:37:21.331Z,6.38
2022-09-01T04:39:57.228Z,5.35
2022-09-01T04:42:29.444Z,6.80
2022-09-01T04:45:03.131Z,4.47
2022-09-01T04:47:42.581Z,5.57
2022-09-01T04:50:17.234Z,8.30
2022-09-01T04:53:06.176Z,6.32
2022-09-01T04:58:17.483Z,7.68
2022-09-01T05:00:52.398Z,6.22
2022-09-01T05:03:24.265Z,5.43
2022-09-01T05:06:20.335Z,6.20
2022-09-01T05:08:52.678Z,9.27
2022-09-01T05:11:56.492Z,7.38
2022-09-01T05:14:28.177Z,8.32
2022-09-01T05:16:58.940Z,7.57
2022-09-01T05:19:31.297Z,3.38
2022-09-01T05:22:01.878Z,5.82
2022-09-01T05:24:32.416Z,3.92
2022-09-01T05:27:07.752Z,6.93
2022-09-01T05:29:38.684Z,9.18
2022-09-01T05:32:12.689Z,3.92
2022-09-01T05:34:42.692Z,6.65
2022-09-01T05:37:14.603Z,5.28
2022-09-01T05:39:42.617Z,6.57
2022-09-01T05:42:10.794Z,5.40
2022-09-01T05:44:44.453Z,6.15
2022-09-01T05:47:20.690Z,5.05
2022-09-01T05:49:50.521Z,8.45
2022-09-01T05:52:25.074Z,7.35
2022-09-01T05:55:00.109Z,3.88
2022-09-01T05:57:34.789Z,4.35
2022-09-01T06:00:12.262Z,4.65
2022-09-01T06:02:44.158Z,4.15
2022-09-01T06:05:19.718Z,4.43
2022-09-01T06:07:49.474Z,2.47
2022-09-01T06:10:17.441Z,5.80
2022-09-01T06:12:48.632Z,7.22
2022-09-01T06:15:18.678Z,6.57
2022-09-01T06:17:51.024Z,3.50
2022-09-01T06:20:19.479Z,10.02
2022-09-01T06:22:47.747Z,3.00
2022-09-01T06:25:18.681Z,8.93
2022-09-01T06:27:48.466Z,5.43
2022-09-01T06:30:23.711Z,4.93
2022-09-01T06:33:02.202Z,5.95
2022-09-01T06:35:32.449Z,6.85
2022-09-01T06:38:01.993Z,3.08
2022-09-01T06:41:10.614Z,10.98
2022-09-01T06:43:41.891Z,8.27
2022-09-01T06:46:10.386Z,10.95
2022-09-01T06:48:40.181Z,3.60
2022-09-01T06:51:15.825Z,6.90
2022-09-01T06:53:51.333Z,5.75
2022-09-01T06:56:19.861Z,3.40
2022-09-01T06:58:48.867Z,4.03
2022-09-01T07:01:19.746Z,3.63
2022-09-01T07:03:52.007Z,3.80
2022-09-01T07:07:00.216Z,4.72
2022-09-01T07:09:50.043Z,3.85
2022-09-01T07:13:05.488Z,5.35
2022-09-01T07:18:23.401Z,3.38
2022-09-01T07:21:36.553Z,4.45
2022-09-01T07:24:07.934Z,4.80
2022-09-01T07:26:35.761Z,5.15
2022-09-01T07:29:07.021Z,5.18
2022-09-01T07:34:46.599Z,3.30
2022-09-01T07:43:27.256Z,5.10
2022-09-01T07:49:29.275Z,2.15
2022-09-01T07:51:53.109Z,3.20
2022-09-01T07:54:24.106Z,3.65
2022-09-01T07:56:54.776Z,4.45
2022-09-01T07:59:24.039Z,3.25
2022-09-01T08:02:01.186Z,1.35
2022-09-01T08:04:29.309Z,1.63
2022-09-01T08:06:57.594Z,4.13
2022-09-01T08:09:32.901Z,3.05
2022-09-01T08:12:07.925Z,4.57
2022-09-01T08:14:40.835Z,2.25
2022-09-01T08:17:18.034Z,1.88
2022-09-01T08:20:00.767Z,1.00
2022-09-01T08:22:47.476Z,3.05
2022-09-01T08:25:36.713Z,5.35
2022-09-01T08:28:06.267Z,2.20
2022-09-01T08:30:36.035Z,1.65
2022-09-01T08:33:12.160Z,1.75
2022-09-01T08:35:46.637Z,5.93
2022-09-01T08:38:15.480Z,2.47
2022-09-01T08:40:56.092Z,3.42
2022-09-01T08:43:31.814Z,2.60
2022-09-01T08:46:23.133Z,1.27
2022-09-01T08:49:24.785Z,2.03
2022-09-01T08:52:29.600Z,1.80
2022-09-01T08:55:12.441Z,1.40
2022-09-01T08:57:44.141Z,2.65
2022-09-01T09:00:24.341Z,2.70
2022-09-01T09:05:58.641Z,2.50
2022-09-01T09:08:43.898Z,2.00
2022-09-01T09:11:54.720Z,3.78
2022-09-01T09:14:57.783Z,3.00
2022-09-01T09:17:31.043Z,2.60
2022-09-01T09:20:00.617Z,2.03
2022-09-01T09:22:29.144Z,0.80
2022-09-01T09:25:17.475Z,2.65
2022-09-01T09:28:00.113Z,2.42
2022-09-01T09:30:31.507Z,3.63
2022-09-01T09:35:55.019Z,1.40
2022-09-01T09:38:29.361Z,1.40
2022-09-01T09:44:04.305Z,1.58
2022-09-01T09:46:43.770Z,2.00
2022-09-01T09:49:37.341Z,4.07
2022-09-01T09:52:09.186Z,2.58
2022-09-01T09:54:58.342Z,0.25
2022-09-01T09:57:26.731Z,1.67
2022-09-01T10:00:00.676Z,3.05
2022-09-01T10:02:44.061Z,1.15
2022-09-01T10:05:30.160Z,1.13
2022-09-01T10:07:58.697Z,0.70
2022-09-01T10:10:48.689Z,2.70
2022-09-01T10:13:32.459Z,0.47
2022-09-01T10:16:09.038Z,1.80
2022-09-01T10:18:42.208Z,1.05
2022-09-01T10:21:24.142Z,4.38
2022-09-01T10:23:51.869Z,2.95
2022-09-01T10:26:38.791Z,1.05
2022-09-01T10:29:21.457Z,1.60
2022-09-01T10:31:59.353Z,0.50
2022-09-01T10:34:42.134Z,2.60
2022-09-01T10:37:11.709Z,4.40
2022-09-01T10:40:32.634Z,3.38
2022-09-01T10:43:26.119Z,2.58
2022-09-01T10:45:58.939Z,3.72
2022-09-01T10:48:47.911Z,0.85
2022-09-01T10:51:21.114Z,2.80
2022-09-01T10:53:54.122Z,3.17
2022-09-01T10:56:36.994Z,1.30
2022-09-01T10:59:32.079Z,3.38
2022-09-01T11:05:00.331Z,1.85
2022-09-01T11:08:00.093Z,2.33
2022-09-01T11:10:42.589Z,0.60
2022-09-01T11:13:28.777Z,0.50
2022-09-01T11:16:00.449Z,4.20
2022-09-01T11:18:31.526Z,1.90
2022-09-01T11:21:18.205Z,1.17
2022-09-01T11:23:47.182Z,1.40
2022-09-01T11:26:33.402Z,3.40
2022-09-01T11:29:02.466Z,1.65
2022-09-01T11:31:43.851Z,0.93
2022-09-01T11:34:29.849Z,2.50
2022-09-01T11:37:01.864Z,1.17
2022-09-01T11:39:48.903Z,3.17
2022-09-01T11:42:31.761Z,2.00
2022-09-01T11:45:05.774Z,2.85
2022-09-01T11:50:23.526Z,1.85
2022-09-01T11:53:05.023Z,4.72
2022-09-01T11:55:49.414Z,0.75
2022-09-01T11:58:31.354Z,0.85
2022-09-01T12:01:23.354Z,2.20
2022-09-01T12:03:53.210Z,2.70
2022-09-01T12:06:27.853Z,0.93
2022-09-01T12:09:03.144Z,1.27
2022-09-01T12:11:36.538Z,2.08
2022-09-01T12:14:11.556Z,2.10
2022-09-01T12:16:42.553Z,1.77
2022-09-01T12:19:24.441Z,0.70
2022-09-01T12:22:15.004Z,2.13
2022-09-01T12:24:48.420Z,2.22
2022-09-01T12:27:16.491Z,3.03
2022-09-01T12:29:45.103Z,1.90
2022-09-01T12:32:14.335Z,1.95
2022-09-01T12:34:46.722Z,4.05
2022-09-01T12:37:22.638Z,2.05
2022-09-01T12:39:57.369Z,1.55
2022-09-01T12:42:40.983Z,1.50
2022-09-01T12:45:11.698Z,2.17
2022-09-01T12:47:40.845Z,2.15
2022-09-01T12:50:29.731Z,2.25
2022-09-01T12:52:59.156Z,1.52
2022-09-01T12:58:25.666Z,3.22
2022-09-01T13:00:56.481Z,1.35
2022-09-01T13:03:27.541Z,0.90
2022-09-01T13:05:59.947Z,1.83
2022-09-01T13:08:31.546Z,2.10
2022-09-01T13:11:11.298Z,1.73
2022-09-01T13:13:40.014Z,0.80
2022-09-01T13:16:13.674Z,1.45
2022-09-01T13:21:32.825Z,2.97
2022-09-01T13:24:01.535Z,3.17
2022-09-01T13:26:31.494Z,0.90
2022-09-01T13:29:00.384Z,1.48
2022-09-01T13:31:30.302Z,1.38
2022-09-01T13:34:20.744Z,1.90
2022-09-01T13:36:51.636Z,1.58
2022-09-01T13:39:21.139Z,1.08
2022-09-01T13:41:49.669Z,2.53
2022-09-01T13:44:18.718Z,2.58
2022-09-01T13:50:04.646Z,5.53
2022-09-01T13:52:23.627Z,1.30
2022-09-01T13:54:51.579Z,5.35
2022-09-01T13:57:19.547Z,1.65
2022-09-01T13:59:47.329Z,4.25
2022-09-01T14:02:15.524Z,2.10
2022-09-01T14:04:44.372Z,2.33
2022-09-01T14:07:12.204Z,1.05
2022-09-01T14:09:40.162Z,1.65
2022-09-01T14:12:08.049Z,2.40
2022-09-01T14:17:24.087Z,1.23
2022-09-01T14:19:52.224Z,0.70
2022-09-01T14:22:19.985Z,0.65
2022-09-01T14:24:47.923Z,1.27
2022-09-01T14:27:15.738Z,3.88
2022-09-01T14:32:10.909Z,1.73
2022-09-01T14:34:38.615Z,0.68
2022-09-01T14:37:07.396Z,0.63
2022-09-01T14:39:35.348Z,4.13
2022-09-01T14:42:04.119Z,2.55
2022-09-01T14:44:33.666Z,3.38
2022-09-01T14:47:02.128Z,1.23
2022-09-01T14:49:32.991Z,1.98
2022-09-01T14:52:10.741Z,2.20
2022-09-01T14:54:42.493Z,1.88
2022-09-01T14:59:59.300Z,0.98
2022-09-01T15:02:29.057Z,2.20
2022-09-01T15:04:57.365Z,1.70
2022-09-01T15:07:25.393Z,1.08
2022-09-01T15:09:53.193Z,0.73
2022-09-01T15:12:22.426Z,1.17
2022-09-01T15:14:50.780Z,0.85
2022-09-01T15:17:18.499Z,0.77
2022-09-01T15:19:46.195Z,2.47
2022-09-01T15:22:14.548Z,1.83
2022-09-01T15:24:42.672Z,2.67
2022-09-01T15:27:11.623Z,1.45
2022-09-01T15:29:46.837Z,0.60
2022-09-01T15:32:28.105Z,1.58
2022-09-01T15:34:56.889Z,2.15
2022-09-01T15:37:24.768Z,2.17
2022-09-01T15:39:52.564Z,1.70
2022-09-01T15:42:21.914Z,1.80
2022-09-01T15:44:50.007Z,1.25
2022-09-01T15:47:17.661Z,2.50
2022-09-01T15:49:45.834Z,2.00
2022-09-01T15:52:17.163Z,1.67
2022-09-01T15:54:44.945Z,2.70
2022-09-01T15:57:13.051Z,2.53
2022-09-01T15:59:43.070Z,3.80
2022-09-01T16:02:14.952Z,1.45
2022-09-01T16:04:43.211Z,1.92
2022-09-01T16:07:11.053Z,2.70
2022-09-01T16:09:39.014Z,1.92
2022-09-01T16:12:07.912Z,2.20
2022-09-01T16:14:35.703Z,2.10
2022-09-01T16:17:11.886Z,0.85
2022-09-01T16:19:43.084Z,0.90
2022-09-01T16:22:26.396Z,1.65
2022-09-01T16:25:00.857Z,0.88
2022-09-01T16:27:40.807Z,2.55
2022-09-01T16:30:13.036Z,0.70
2022-09-01T16:32:46.237Z,0.70
2022-09-01T16:35:15.894Z,1.15
2022-09-01T16:38:14.114Z,2.15
2022-09-01T16:41:04.429Z,2.08
2022-09-01T16:43:58.353Z,0.70
2022-09-01T16:47:01.744Z,3.13
2022-09-01T16:49:48.270Z,2.65
2022-09-01T16:52:22.468Z,2.92
2022-09-01T16:55:28.890Z,0.75
2022-09-01T16:58:05.785Z,2.90
2022-09-01T17:01:03.381Z,3.60
2022-09-01T17:03:43.837Z,5.05
2022-09-01T17:06:21.636Z,3.15
2022-09-01T17:09:10.668Z,3.78
2022-09-01T17:12:00.332Z,3.90
2022-09-01T17:14:40.637Z,7.60
2022-09-01T17:17:14.033Z,5.60
2022-09-01T17:19:42.160Z,6.88
2022-09-01T17:22:14.563Z,5.50
2022-09-01T17:24:49.342Z,11.95
2022-09-01T17:27:55.735Z,4.80
2022-09-01T17:30:23.557Z,4.88
2022-09-01T17:33:26.251Z,6.88
2022-09-01T17:36:09.239Z,9.05
2022-09-01T17:39:04.406Z,9.23
2022-09-01T17:41:57.188Z,4.78
2022-09-01T17:44:35.709Z,3.97
2022-09-01T17:47:23.444Z,3.42
2022-09-01T17:50:03.644Z,3.80
2022-09-01T17:52:52.737Z,5.05
2022-09-01T17:56:08.560Z,2.83
2022-09-01T17:59:10.650Z,5.82
2022-09-01T18:01:47.592Z,3.88
2022-09-01T18:04:35.863Z,6.78
2022-09-01T18:08:01.074Z,4.63
2022-09-01T18:10:40.146Z,3.47
2022-09-01T18:13:25.851Z,4.45
2022-09-01T18:16:10.472Z,2.15
2022-09-01T18:18:41.252Z,9.85
2022-09-01T18:21:22.046Z,3.65
2022-09-01T18:23:58.190Z,6.53
2022-09-01T18:26:35.346Z,3.92
2022-09-01T18:29:05.175Z,4.95
2022-09-01T18:31:47.790Z,2.03
2022-09-01T18:35:11.617Z,3.50
2022-09-01T18:37:58.674Z,4.13
2022-09-01T18:40:48.699Z,4.97
2022-09-01T18:43:22.623Z,8.23
2022-09-01T18:46:00.968Z,5.00
2022-09-01T18:48:55.000Z,6.55
2022-09-01T18:51:51.406Z,6.33
2022-09-01T18:54:29.891Z,2.80
2022-09-01T18:57:03.931Z,4.63
2022-09-01T18:59:44.578Z,4.10
2022-09-01T19:02:12.653Z,8.00
2022-09-01T19:04:42.531Z,5.75
2022-09-01T19:07:21.849Z,5.75
2022-09-01T19:10:18.471Z,3.33
2022-09-01T19:13:03.966Z,3.45
2022-09-01T19:15:51.011Z,4.75
2022-09-01T19:18:36.091Z,3.38
2022-09-01T19:21:21.345Z,5.93
2022-09-01T19:24:03.772Z,4.93
2022-09-01T19:26:40.445Z,5.57
2022-09-01T19:29:16.781Z,6.47
2022-09-01T19:31:49.221Z,8.50
2022-09-01T19:34:20.371Z,7.15
2022-09-01T19:37:00.766Z,5.13
2022-09-01T19:39:33.996Z,7.40
2022-09-01T19:42:08.162Z,5.47
2022-09-01T19:45:00.351Z,4.65
2022-09-01T19:47:47.821Z,5.88
2022-09-01T19:50:35.935Z,4.85
2022-09-01T19:53:28.551Z,4.53
2022-09-01T19:56:20.274Z,6.47
2022-09-01T19:58:53.201Z,6.03
2022-09-01T20:01:35.935Z,4.30
2022-09-01T20:04:15.055Z,5.25
2022-09-01T20:06:48.030Z,5.15
2022-09-01T20:09:46.317Z,7.50
2022-09-01T20:12:20.029Z,7.03
2022-09-01T20:14:47.866Z,6.60
2022-09-01T20:17:43.751Z,8.63
2022-09-01T20:20:23.285Z,6.60
2022-09-01T20:23:22.232Z,15.38
2022-09-01T20:26:17.123Z,6.95
2022-09-01T20:29:03.420Z,8.40
2022-09-01T20:31:36.161Z,6.70
2022-09-01T20:34:25.276Z,5.22
2022-09-01T20:37:21.275Z,9.73
2022-09-01T20:40:00.453Z,5.65
2022-09-01T20:42:43.608Z,11.38
2022-09-01T20:45:14.258Z,6.07
2022-09-01T20:47:58.086Z,5.68
2022-09-01T20:50:58.821Z,7.05
2022-09-01T20:53:38.883Z,8.18
2022-09-01T20:56:15.358Z,4.85
2022-09-01T20:59:16.956Z,7.15
2022-09-01T21:02:19.408Z,6.88
2022-09-01T21:05:11.065Z,8.98
2022-09-01T21:08:24.892Z,4.80
2022-09-01T21:11:12.916Z,7.97
2022-09-01T21:13:52.989Z,6.85
2022-09-01T21:16:32.538Z,7.25
2022-09-01T21:19:23.676Z,7.65
2022-09-01T21:22:21.772Z,10.07
2022-09-01T21:24:51.127Z,6.70
2022-09-01T21:27:36.963Z,6.47
2022-09-01T21:30:09.557Z,6.53
2022-09-01T21:32:37.901Z,8.60
2022-09-01T21:35:07.674Z,10.32
2022-09-01T21:37:35.726Z,8.38
2022-09-01T21:40:05.514Z,9.55
2022-09-01T21:42:56.524Z,10.75
2022-09-01T21:45:24.830Z,7.88
2022-09-01T21:47:53.658Z,8.77
2022-09-01T21:50:23.521Z,8.82
2022-09-01T21:52:52.085Z,6.20
2022-09-01T21:55:23.058Z,9.30
2022-09-01T21:57:51.961Z,15.15
2022-09-01T22:00:23.964Z,14.15
2022-09-01T22:02:53.655Z,6.78
2022-09-01T22:05:21.954Z,6.78
2022-09-01T22:07:49.681Z,8.90
2022-09-01T22:10:21.217Z,8.38
2022-09-01T22:12:50.621Z,6.90
2022-09-01T22:15:21.745Z,6.32
2022-09-01T22:17:50.895Z,7.10
2022-09-01T22:20:22.399Z,8.23
2022-09-01T22:22:51.493Z,7.97
2022-09-01T22:25:23.857Z,10.68
2022-09-01T22:27:51.828Z,9.13
2022-09-01T22:30:19.677Z,14.95
2022-09-01T22:32:48.049Z,5.82
2022-09-01T22:35:17.069Z,9.25
2022-09-01T22:37:45.007Z,5.90
2022-09-01T22:40:13.904Z,6.43
2022-09-01T22:42:43.064Z,5.97
2022-09-01T22:45:13.135Z,5.63
2022-09-01T22:47:41.503Z,7.78
2022-09-01T22:50:10.523Z,5.57
2022-09-01T22:52:39.778Z,6.25
2022-09-01T22:55:09.039Z,9.90
2022-09-01T22:57:37.704Z,5.82
2022-09-01T23:00:09.835Z,7.28
2022-09-01T23:02:39.265Z,6.22
2022-09-01T23:05:07.614Z,5.85
2022-09-01T23:07:39.577Z,7.72
2022-09-01T23:10:09.439Z,6.75
2022-09-01T23:12:37.364Z,9.48
2022-09-01T23:15:06.401Z,10.48
2022-09-01T23:17:36.729Z,6.55
2022-09-01T23:20:08.845Z,5.07
2022-09-01T23:22:36.891Z,6.68
2022-09-01T23:25:05.599Z,11.45
2022-09-01T23:27:33.358Z,10.13
2022-09-01T23:30:01.656Z,7.70
2022-09-01T23:32:30.225Z,7.10
2022-09-01T23:34:59.075Z,6.97
2022-09-01T23:37:27.961Z,7.95
2022-09-01T23:39:57.442Z,8.75
2022-09-01T23:42:25.381Z,6.78
2022-09-01T23:44:53.399Z,7.30
2022-09-01T23:47:21.241Z,6.80
2022-09-01T23:49:48.973Z,7.65
2022-09-01T23:52:16.917Z,9.32
2022-09-01T23:54:44.703Z,6.70
2022-09-01T23:57:12.916Z,9.13
2022-09-01T23:59:40.897Z,9.73
